sensor_id;sensor_type;location;lat;lon;timestamp;pressure;altitude;pressure_sealevel;temperature;humidity
7075;BME280;3578;51.568;6.932;2022-08-19T00:01:28;55932.59;;;-144.14;98.18
7075;BME280;3578;51.568;6.932;2022-08-19T00:03:57;55944.66;;;-144.14;98.36
7075;BME280;3578;51.568;6.932;2022-08-19T00:06:24;55924.59;;;-144.14;98.43
7075;BME280;3578;51.568;6.932;2022-08-19T00:08:52;55900.53;;;-144.14;98.55
7075;BME280;3578;51.568;6.932;2022-08-19T00:11:19;55908.53;;;-144.14;98.23
7075;BME280;3578;51.568;6.932;2022-08-19T00:13:46;55932.59;;;-144.14;98.26
7075;BME280;3578;51.568;6.932;2022-08-19T00:16:15;55920.56;;;-144.14;98.21
7075;BME280;3578;51.568;6.932;2022-08-19T00:18:45;55948.66;;;-144.14;98.33
7075;BME280;3578;51.568;6.932;2022-08-19T00:21:12;55948.66;;;-144.14;98.39
7075;BME280;3578;51.568;6.932;2022-08-19T00:23:39;55920.56;;;-144.14;98.59
7075;BME280;3578;51.568;6.932;2022-08-19T00:26:07;55934.63;;;-144.14;98.56
7075;BME280;3578;51.568;6.932;2022-08-19T00:28:34;55886.47;;;-144.14;98.66
7075;BME280;3578;51.568;6.932;2022-08-19T00:31:02;55924.59;;;-144.14;98.82
7075;BME280;3578;51.568;6.932;2022-08-19T00:33:30;55928.59;;;-144.14;98.69
7075;BME280;3578;51.568;6.932;2022-08-19T00:36:00;55900.53;;;-144.14;98.60
7075;BME280;3578;51.568;6.932;2022-08-19T00:38:27;55922.59;;;-144.14;98.74
7075;BME280;3578;51.568;6.932;2022-08-19T00:40:56;55912.56;;;-144.14;98.85
7075;BME280;3578;51.568;6.932;2022-08-19T00:43:26;55906.53;;;-144.14;99.03
7075;BME280;3578;51.568;6.932;2022-08-19T00:45:54;55882.47;;;-144.14;99.09
7075;BME280;3578;51.568;6.932;2022-08-19T00:48:21;55880.47;;;-144.14;99.05
7075;BME280;3578;51.568;6.932;2022-08-19T00:50:51;55850.38;;;-144.14;98.88
7075;BME280;3578;51.568;6.932;2022-08-19T00:53:24;55836.34;;;-144.14;98.88
7075;BME280;3578;51.568;6.932;2022-08-19T00:55:56;55836.34;;;-144.14;98.97
7075;BME280;3578;51.568;6.932;2022-08-19T00:58:29;55852.38;;;-144.14;98.92
7075;BME280;3578;51.568;6.932;2022-08-19T01:00:56;55820.28;;;-144.14;98.91
7075;BME280;3578;51.568;6.932;2022-08-19T01:03:24;55786.19;;;-144.14;98.77
7075;BME280;3578;51.568;6.932;2022-08-19T01:05:52;55762.13;;;-144.14;98.75
7075;BME280;3578;51.568;6.932;2022-08-19T01:08:22;55848.38;;;-144.14;98.85
7075;BME280;3578;51.568;6.932;2022-08-19T01:10:53;55840.34;;;-144.14;98.96
7075;BME280;3578;51.568;6.932;2022-08-19T01:13:25;55808.25;;;-144.14;98.91
7075;BME280;3578;51.568;6.932;2022-08-19T01:15:57;55792.22;;;-144.14;99.02
7075;BME280;3578;51.568;6.932;2022-08-19T01:18:27;55794.22;;;-144.14;99.00
7075;BME280;3578;51.568;6.932;2022-08-19T01:20:56;55752.09;;;-144.14;98.98
7075;BME280;3578;51.568;6.932;2022-08-19T01:23:26;55780.19;;;-144.14;98.96
7075;BME280;3578;51.568;6.932;2022-08-19T01:26:11;55784.19;;;-144.14;99.10
7075;BME280;3578;51.568;6.932;2022-08-19T01:28:38;55750.09;;;-144.14;99.20
7075;BME280;3578;51.568;6.932;2022-08-19T01:31:07;55768.16;;;-144.14;99.26
7075;BME280;3578;51.568;6.932;2022-08-19T01:33:37;55772.16;;;-144.14;99.38
7075;BME280;3578;51.568;6.932;2022-08-19T01:36:07;55782.19;;;-144.14;99.46
7075;BME280;3578;51.568;6.932;2022-08-19T01:38:39;55758.13;;;-144.14;99.57
7075;BME280;3578;51.568;6.932;2022-08-19T01:41:07;55738.06;;;-144.14;99.42
7075;BME280;3578;51.568;6.932;2022-08-19T01:43:34;55772.16;;;-144.14;99.34
7075;BME280;3578;51.568;6.932;2022-08-19T01:46:02;55750.09;;;-144.14;99.34
7075;BME280;3578;51.568;6.932;2022-08-19T01:48:34;55760.13;;;-144.14;99.32
7075;BME280;3578;51.568;6.932;2022-08-19T01:51:02;55710.00;;;-144.14;99.49
7075;BME280;3578;51.568;6.932;2022-08-19T01:53:30;55714.00;;;-144.14;99.71
7075;BME280;3578;51.568;6.932;2022-08-19T01:55:59;55724.03;;;-144.14;99.76
7075;BME280;3578;51.568;6.932;2022-08-19T01:58:32;55748.09;;;-144.14;99.74
7075;BME280;3578;51.568;6.932;2022-08-19T02:01:02;55730.03;;;-144.14;99.71
7075;BME280;3578;51.568;6.932;2022-08-19T02:03:29;55750.09;;;-144.14;99.67
7075;BME280;3578;51.568;6.932;2022-08-19T02:05:59;55758.13;;;-144.14;99.63
7075;BME280;3578;51.568;6.932;2022-08-19T02:08:26;55712.00;;;-144.14;99.61
7075;BME280;3578;51.568;6.932;2022-08-19T02:10:53;55699.97;;;-144.14;99.53
7075;BME280;3578;51.568;6.932;2022-08-19T02:13:23;55659.84;;;-144.14;99.70
7075;BME280;3578;51.568;6.932;2022-08-19T02:15:51;55689.94;;;-144.14;99.61
7075;BME280;3578;51.568;6.932;2022-08-19T02:18:18;55683.91;;;-144.14;99.76
7075;BME280;3578;51.568;6.932;2022-08-19T02:20:45;55671.88;;;-144.14;99.74
7075;BME280;3578;51.568;6.932;2022-08-19T02:23:14;55685.91;;;-144.14;99.92
7075;BME280;3578;51.568;6.932;2022-08-19T02:25:43;55663.84;;;-144.14;99.87
7075;BME280;3578;51.568;6.932;2022-08-19T02:28:10;55683.91;;;-144.14;99.96
7075;BME280;3578;51.568;6.932;2022-08-19T02:30:41;55685.91;;;-144.14;99.94
7075;BME280;3578;51.568;6.932;2022-08-19T02:33:09;55667.88;;;-144.14;99.97
7075;BME280;3578;51.568;6.932;2022-08-19T02:35:36;55671.88;;;-144.14;100.00
7075;BME280;3578;51.568;6.932;2022-08-19T02:38:03;55703.97;;;-144.14;99.95
7075;BME280;3578;51.568;6.932;2022-08-19T02:41:04;55641.81;;;-144.14;99.85
7075;BME280;3578;51.568;6.932;2022-08-19T02:43:33;55659.84;;;-144.14;99.88
7075;BME280;3578;51.568;6.932;2022-08-19T02:46:12;55639.78;;;-144.14;99.94
7075;BME280;3578;51.568;6.932;2022-08-19T02:48:40;55665.88;;;-144.14;99.91
7075;BME280;3578;51.568;6.932;2022-08-19T02:51:07;55683.91;;;-144.14;99.95
7075;BME280;3578;51.568;6.932;2022-08-19T02:53:34;55667.88;;;-144.14;100.00
7075;BME280;3578;51.568;6.932;2022-08-19T02:56:06;55677.91;;;-144.14;100.00
7075;BME280;3578;51.568;6.932;2022-08-19T02:58:34;55685.91;;;-144.14;100.00
7075;BME280;3578;51.568;6.932;2022-08-19T03:01:02;55655.84;;;-144.14;99.93
7075;BME280;3578;51.568;6.932;2022-08-19T03:03:29;55625.75;;;-144.14;99.72
7075;BME280;3578;51.568;6.932;2022-08-19T03:06:09;55647.81;;;-144.14;99.72
7075;BME280;3578;51.568;6.932;2022-08-19T03:08:39;55635.78;;;-144.14;99.68
7075;BME280;3578;51.568;6.932;2022-08-19T03:11:13;55637.78;;;-144.14;99.82
7075;BME280;3578;51.568;6.932;2022-08-19T03:13:40;55635.78;;;-144.14;99.92
7075;BME280;3578;51.568;6.932;2022-08-19T03:16:10;55681.91;;;-144.14;99.95
7075;BME280;3578;51.568;6.932;2022-08-19T03:18:38;55639.78;;;-144.14;100.00
7075;BME280;3578;51.568;6.932;2022-08-19T03:21:07;55627.75;;;-144.14;100.00
7075;BME280;3578;51.568;6.932;2022-08-19T03:23:35;55641.81;;;-144.14;100.00
7075;BME280;3578;51.568;6.932;2022-08-19T03:26:05;55647.81;;;-144.14;100.00
7075;BME280;3578;51.568;6.932;2022-08-19T03:28:33;55615.72;;;-144.14;100.00
7075;BME280;3578;51.568;6.932;2022-08-19T03:31:03;55599.69;;;-144.14;100.00
7075;BME280;3578;51.568;6.932;2022-08-19T03:33:33;55589.66;;;-144.14;100.00
7075;BME280;3578;51.568;6.932;2022-08-19T03:36:13;55619.75;;;-144.14;100.00
7075;BME280;3578;51.568;6.932;2022-08-19T03:38:43;55607.72;;;-144.14;100.00
7075;BME280;3578;51.568;6.932;2022-08-19T03:41:13;55597.69;;;-144.14;100.00
7075;BME280;3578;51.568;6.932;2022-08-19T03:43:43;55623.75;;;-144.14;100.00
7075;BME280;3578;51.568;6.932;2022-08-19T03:46:15;55619.75;;;-144.14;100.00
7075;BME280;3578;51.568;6.932;2022-08-19T03:48:44;55599.69;;;-144.14;100.00
7075;BME280;3578;51.568;6.932;2022-08-19T03:51:16;55575.63;;;-144.14;100.00
7075;BME280;3578;51.568;6.932;2022-08-19T03:53:44;55601.69;;;-144.14;100.00
7075;BME280;3578;51.568;6.932;2022-08-19T03:56:12;55605.69;;;-144.14;100.00
7075;BME280;3578;51.568;6.932;2022-08-19T03:58:40;55599.69;;;-144.14;100.00
7075;BME280;3578;51.568;6.932;2022-08-19T04:01:10;55609.72;;;-144.14;100.00
7075;BME280;3578;51.568;6.932;2022-08-19T04:03:38;55621.75;;;-144.14;100.00
7075;BME280;3578;51.568;6.932;2022-08-19T04:06:12;55601.69;;;-144.14;100.00
7075;BME280;3578;51.568;6.932;2022-08-19T04:08:41;55595.69;;;-144.14;100.00
7075;BME280;3578;51.568;6.932;2022-08-19T04:11:09;55593.66;;;-144.14;100.00
7075;BME280;3578;51.568;6.932;2022-08-19T04:13:37;55565.59;;;-144.14;100.00
7075;BME280;3578;51.568;6.932;2022-08-19T04:16:05;55583.63;;;-144.14;100.00
7075;BME280;3578;51.568;6.932;2022-08-19T04:18:33;55621.75;;;-144.14;100.00
7075;BME280;3578;51.568;6.932;2022-08-19T04:21:00;55625.75;;;-144.14;100.00
7075;BME280;3578;51.568;6.932;2022-08-19T04:23:28;55593.66;;;-144.14;100.00
7075;BME280;3578;51.568;6.932;2022-08-19T04:25:56;55617.72;;;-144.14;100.00
7075;BME280;3578;51.568;6.932;2022-08-19T04:28:24;55575.63;;;-144.14;100.00
7075;BME280;3578;51.568;6.932;2022-08-19T04:30:53;55607.72;;;-144.14;100.00
7075;BME280;3578;51.568;6.932;2022-08-19T04:33:23;55607.72;;;-144.14;100.00
7075;BME280;3578;51.568;6.932;2022-08-19T04:35:52;55571.59;;;-144.14;100.00
7075;BME280;3578;51.568;6.932;2022-08-19T04:38:21;55607.72;;;-144.14;100.00
7075;BME280;3578;51.568;6.932;2022-08-19T04:40:51;55623.75;;;-144.14;100.00
7075;BME280;3578;51.568;6.932;2022-08-19T04:43:38;55619.75;;;-144.14;100.00
7075;BME280;3578;51.568;6.932;2022-08-19T04:46:07;55619.75;;;-144.14;100.00
7075;BME280;3578;51.568;6.932;2022-08-19T04:48:34;55607.72;;;-144.14;100.00
7075;BME280;3578;51.568;6.932;2022-08-19T04:51:06;55615.72;;;-144.14;100.00
7075;BME280;3578;51.568;6.932;2022-08-19T04:53:36;55611.72;;;-144.14;100.00
7075;BME280;3578;51.568;6.932;2022-08-19T04:56:09;55655.84;;;-144.14;100.00
7075;BME280;3578;51.568;6.932;2022-08-19T04:58:38;55659.84;;;-144.14;100.00
7075;BME280;3578;51.568;6.932;2022-08-19T05:01:07;55689.94;;;-144.14;100.00
7075;BME280;3578;51.568;6.932;2022-08-19T05:03:34;55705.97;;;-144.14;100.00
7075;BME280;3578;51.568;6.932;2022-08-19T05:06:05;55675.91;;;-144.14;100.00
7075;BME280;3578;51.568;6.932;2022-08-19T05:08:35;55669.88;;;-144.14;100.00
7075;BME280;3578;51.568;6.932;2022-08-19T05:11:12;55703.97;;;-144.14;100.00
7075;BME280;3578;51.568;6.932;2022-08-19T05:13:40;55673.88;;;-144.14;100.00
7075;BME280;3578;51.568;6.932;2022-08-19T05:16:11;55707.97;;;-144.14;100.00
7075;BME280;3578;51.568;6.932;2022-08-19T05:18:39;55705.97;;;-144.14;100.00
7075;BME280;3578;51.568;6.932;2022-08-19T05:21:25;55744.09;;;-144.14;100.00
7075;BME280;3578;51.568;6.932;2022-08-19T05:24:07;55766.13;;;-144.14;100.00
7075;BME280;3578;51.568;6.932;2022-08-19T05:26:36;55790.22;;;-144.14;100.00
7075;BME280;3578;51.568;6.932;2022-08-19T05:29:04;55858.41;;;-144.14;100.00
7075;BME280;3578;51.568;6.932;2022-08-19T05:31:31;55928.59;;;-144.14;100.00
7075;BME280;3578;51.568;6.932;2022-08-19T05:33:58;55932.59;;;-144.14;100.00
7075;BME280;3578;51.568;6.932;2022-08-19T05:36:26;55982.75;;;-144.14;100.00
7075;BME280;3578;51.568;6.932;2022-08-19T05:38:54;56044.94;;;-144.14;99.60
7075;BME280;3578;51.568;6.932;2022-08-19T05:41:22;56099.09;;;-144.14;99.21
7075;BME280;3578;51.568;6.932;2022-08-19T05:43:58;56155.25;;;-144.14;99.04
7075;BME280;3578;51.568;6.932;2022-08-19T05:46:27;56193.34;;;-144.14;98.84
7075;BME280;3578;51.568;6.932;2022-08-19T05:48:55;56183.34;;;-144.14;98.63
7075;BME280;3578;51.568;6.932;2022-08-19T05:51:23;56221.44;;;-144.14;98.51
7075;BME280;3578;51.568;6.932;2022-08-19T05:53:51;56233.47;;;-144.14;98.20
7075;BME280;3578;51.568;6.932;2022-08-19T05:56:18;56255.53;;;-144.14;97.99
7075;BME280;3578;51.568;6.932;2022-08-19T05:58:46;56257.53;;;-144.14;98.08
7075;BME280;3578;51.568;6.932;2022-08-19T06:01:18;56337.78;;;-144.14;97.88
7075;BME280;3578;51.568;6.932;2022-08-19T06:03:45;56333.78;;;-144.14;97.89
7075;BME280;3578;51.568;6.932;2022-08-19T06:06:15;56337.78;;;-144.14;97.51
7075;BME280;3578;51.568;6.932;2022-08-19T06:08:43;56416.00;;;-144.14;97.49
7075;BME280;3578;51.568;6.932;2022-08-19T06:11:18;56391.94;;;-144.14;97.78
7075;BME280;3578;51.568;6.932;2022-08-19T06:13:47;56416.00;;;-144.14;97.64
7075;BME280;3578;51.568;6.932;2022-08-19T06:16:19;56456.13;;;-144.14;97.67
7075;BME280;3578;51.568;6.932;2022-08-19T06:18:49;56472.19;;;-144.14;97.86
7075;BME280;3578;51.568;6.932;2022-08-19T06:21:19;56458.13;;;-144.14;97.66
7075;BME280;3578;51.568;6.932;2022-08-19T06:23:47;56444.09;;;-144.14;97.67
7075;BME280;3578;51.568;6.932;2022-08-19T06:26:15;56520.31;;;-144.14;97.63
7075;BME280;3578;51.568;6.932;2022-08-19T06:28:43;56514.31;;;-144.14;97.29
7075;BME280;3578;51.568;6.932;2022-08-19T06:31:13;56562.44;;;-144.14;96.77
7075;BME280;3578;51.568;6.932;2022-08-19T06:33:41;56602.56;;;-144.14;96.51
7075;BME280;3578;51.568;6.932;2022-08-19T06:36:17;56590.53;;;-144.14;96.89
7075;BME280;3578;51.568;6.932;2022-08-19T06:38:45;56572.47;;;-144.14;97.24
7075;BME280;3578;51.568;6.932;2022-08-19T06:41:12;56638.69;;;-144.14;97.08
7075;BME280;3578;51.568;6.932;2022-08-19T06:43:39;56702.88;;;-144.14;96.90
7075;BME280;3578;51.568;6.932;2022-08-19T06:46:12;56757.03;;;-144.14;96.57
7075;BME280;3578;51.568;6.932;2022-08-19T06:48:40;56855.34;;;-144.14;96.36
7075;BME280;3578;51.568;6.932;2022-08-19T06:51:07;57009.84;;;-144.14;95.52
7075;BME280;3578;51.568;6.932;2022-08-19T06:53:35;57096.09;;;-144.14;94.21
7075;BME280;3578;51.568;6.932;2022-08-19T06:56:02;57184.38;;;-144.14;93.31
7075;BME280;3578;51.568;6.932;2022-08-19T06:58:30;57166.31;;;-144.14;93.34
7075;BME280;3578;51.568;6.932;2022-08-19T07:01:00;57282.69;;;-144.14;93.06
7075;BME280;3578;51.568;6.932;2022-08-19T07:03:30;57649.91;;;-144.14;89.64
7075;BME280;3578;51.568;6.932;2022-08-19T07:06:03;57922.84;;;-144.14;85.16
7075;BME280;3578;51.568;6.932;2022-08-19T07:08:31;57818.47;;;-144.14;84.92
7075;BME280;3578;51.568;6.932;2022-08-19T07:10:59;57708.09;;;-144.14;85.96
7075;BME280;3578;51.568;6.932;2022-08-19T07:13:26;57553.59;;;-144.14;87.40
7075;BME280;3578;51.568;6.932;2022-08-19T07:15:53;57525.50;;;-144.14;87.66
7075;BME280;3578;51.568;6.932;2022-08-19T07:18:20;57453.25;;;-144.14;88.45
7075;BME280;3578;51.568;6.932;2022-08-19T07:20:48;57533.53;;;-144.14;88.33
7075;BME280;3578;51.568;6.932;2022-08-19T07:23:16;57557.59;;;-144.14;87.99
7075;BME280;3578;51.568;6.932;2022-08-19T07:25:44;57627.84;;;-144.14;87.34
7075;BME280;3578;51.568;6.932;2022-08-19T07:28:11;57806.44;;;-144.14;87.49
7075;BME280;3578;51.568;6.932;2022-08-19T07:30:38;57846.56;;;-144.14;85.08
7075;BME280;3578;51.568;6.932;2022-08-19T07:33:06;57930.84;;;-144.14;84.18
7075;BME280;3578;51.568;6.932;2022-08-19T07:35:33;57971.00;;;-144.14;83.01
7075;BME280;3578;51.568;6.932;2022-08-19T07:38:00;58067.31;;;-144.14;82.84
7075;BME280;3578;51.568;6.932;2022-08-19T07:40:30;58001.09;;;-144.14;82.44
7075;BME280;3578;51.568;6.932;2022-08-19T07:42:58;57860.63;;;-144.14;83.64
7075;BME280;3578;51.568;6.932;2022-08-19T07:45:26;57816.47;;;-144.14;84.03
7075;BME280;3578;51.568;6.932;2022-08-19T07:47:54;57934.88;;;-144.14;84.04
7075;BME280;3578;51.568;6.932;2022-08-19T07:50:21;58300.13;;;-144.14;81.53
7075;BME280;3578;51.568;6.932;2022-08-19T07:52:49;58384.44;;;-144.14;80.43
7075;BME280;3578;51.568;6.932;2022-08-19T07:55:23;58350.31;;;-144.14;79.38
7075;BME280;3578;51.568;6.932;2022-08-19T07:57:51;58340.28;;;-144.14;80.18
7075;BME280;3578;51.568;6.932;2022-08-19T08:00:19;58438.63;;;-144.14;78.94
7075;BME280;3578;51.568;6.932;2022-08-19T08:02:46;58476.78;;;-144.14;78.89
7075;BME280;3578;51.568;6.932;2022-08-19T08:05:13;58484.78;;;-144.14;78.12
7075;BME280;3578;51.568;6.932;2022-08-19T08:07:57;58322.22;;;-144.14;78.83
7075;BME280;3578;51.568;6.932;2022-08-19T08:10:42;58316.19;;;-144.14;79.90
7075;BME280;3578;51.568;6.932;2022-08-19T08:13:11;58290.09;;;-144.14;78.65
7075;BME280;3578;51.568;6.932;2022-08-19T08:15:39;58300.13;;;-144.14;79.15
7075;BME280;3578;51.568;6.932;2022-08-19T08:18:06;58396.47;;;-144.14;77.68
7075;BME280;3578;51.568;6.932;2022-08-19T08:20:33;58422.56;;;-144.14;78.29
7075;BME280;3578;51.568;6.932;2022-08-19T08:23:00;58446.66;;;-144.14;77.27
7075;BME280;3578;51.568;6.932;2022-08-19T08:25:45;58432.59;;;-144.14;76.93
7075;BME280;3578;51.568;6.932;2022-08-19T08:28:14;58450.69;;;-144.14;77.96
7075;BME280;3578;51.568;6.932;2022-08-19T08:30:41;58486.81;;;-144.14;77.68
7075;BME280;3578;51.568;6.932;2022-08-19T08:33:09;58494.84;;;-144.14;77.06
7075;BME280;3578;51.568;6.932;2022-08-19T08:35:36;58472.75;;;-144.14;76.26
7075;BME280;3578;51.568;6.932;2022-08-19T08:38:04;58412.53;;;-144.14;75.58
7075;BME280;3578;51.568;6.932;2022-08-19T08:40:42;58316.19;;;-144.14;76.66
7075;BME280;3578;51.568;6.932;2022-08-19T08:43:23;58260.00;;;-144.14;77.32
7075;BME280;3578;51.568;6.932;2022-08-19T08:46:00;58223.88;;;-144.14;78.54
7075;BME280;3578;51.568;6.932;2022-08-19T08:48:36;58223.88;;;-144.14;78.88
7075;BME280;3578;51.568;6.932;2022-08-19T08:51:16;58286.09;;;-144.14;77.52
7075;BME280;3578;51.568;6.932;2022-08-19T08:53:47;58364.38;;;-144.14;76.25
7075;BME280;3578;51.568;6.932;2022-08-19T08:56:16;58412.53;;;-144.14;75.66
7075;BME280;3578;51.568;6.932;2022-08-19T08:58:54;58456.69;;;-144.14;74.40
7075;BME280;3578;51.568;6.932;2022-08-19T09:01:23;58603.22;;;-144.14;73.32
7075;BME280;3578;51.568;6.932;2022-08-19T09:03:50;58733.69;;;-144.14;72.17
7075;BME280;3578;51.568;6.932;2022-08-19T09:06:26;58793.91;;;-144.14;67.44
7075;BME280;3578;51.568;6.932;2022-08-19T09:09:02;58777.84;;;-144.14;66.25
7075;BME280;3578;51.568;6.932;2022-08-19T09:11:43;58838.09;;;-144.14;66.41
7075;BME280;3578;51.568;6.932;2022-08-19T09:14:31;58721.66;;;-144.14;63.66
7075;BME280;3578;51.568;6.932;2022-08-19T09:16:59;58745.75;;;-144.14;67.03
7075;BME280;3578;51.568;6.932;2022-08-19T09:19:29;58755.78;;;-144.14;67.62
7075;BME280;3578;51.568;6.932;2022-08-19T09:21:57;58749.75;;;-144.14;66.81
7075;BME280;3578;51.568;6.932;2022-08-19T09:24:25;58625.31;;;-144.14;65.78
7075;BME280;3578;51.568;6.932;2022-08-19T09:26:53;58665.44;;;-144.14;67.20
7075;BME280;3578;51.568;6.932;2022-08-19T09:29:21;58673.47;;;-144.14;67.21
7075;BME280;3578;51.568;6.932;2022-08-19T09:31:48;58673.47;;;-144.14;65.49
7075;BME280;3578;51.568;6.932;2022-08-19T09:34:16;58707.59;;;-144.14;66.46
7075;BME280;3578;51.568;6.932;2022-08-19T09:36:43;58779.88;;;-144.14;63.40
7075;BME280;3578;51.568;6.932;2022-08-19T09:39:10;58753.78;;;-144.14;60.27
7075;BME280;3578;51.568;6.932;2022-08-19T09:41:37;58761.81;;;-144.14;60.10
7075;BME280;3578;51.568;6.932;2022-08-19T09:44:04;58755.78;;;-144.14;57.78
7075;BME280;3578;51.568;6.932;2022-08-19T09:46:32;58773.84;;;-144.14;58.41
7075;BME280;3578;51.568;6.932;2022-08-19T09:49:00;58797.94;;;-144.14;59.25
7075;BME280;3578;51.568;6.932;2022-08-19T09:51:27;58834.06;;;-144.14;59.41
7075;BME280;3578;51.568;6.932;2022-08-19T09:53:59;58834.06;;;-144.14;59.57
7075;BME280;3578;51.568;6.932;2022-08-19T09:56:28;58950.50;;;-144.14;60.79
7075;BME280;3578;51.568;6.932;2022-08-19T09:58:58;58920.38;;;-144.14;58.98
7075;BME280;3578;51.568;6.932;2022-08-19T10:01:28;58946.47;;;-144.14;59.74
7075;BME280;3578;51.568;6.932;2022-08-19T10:03:59;58910.34;;;-144.14;58.77
7075;BME280;3578;51.568;6.932;2022-08-19T10:06:29;58896.28;;;-144.14;60.80
7075;BME280;3578;51.568;6.932;2022-08-19T10:08:59;58918.38;;;-144.14;59.82
7075;BME280;3578;51.568;6.932;2022-08-19T10:11:26;58992.66;;;-144.14;60.83
7075;BME280;3578;51.568;6.932;2022-08-19T10:13:54;59095.03;;;-144.14;60.76
7075;BME280;3578;51.568;6.932;2022-08-19T10:16:23;59056.91;;;-144.14;57.76
7075;BME280;3578;51.568;6.932;2022-08-19T10:18:52;59000.69;;;-144.14;57.37
7075;BME280;3578;51.568;6.932;2022-08-19T10:21:22;59121.13;;;-144.14;57.93
7075;BME280;3578;51.568;6.932;2022-08-19T10:23:53;59091.03;;;-144.14;56.88
7075;BME280;3578;51.568;6.932;2022-08-19T10:26:26;59141.22;;;-144.14;55.69
7075;BME280;3578;51.568;6.932;2022-08-19T10:28:54;59171.31;;;-144.14;56.03
7075;BME280;3578;51.568;6.932;2022-08-19T10:31:24;59012.72;;;-144.14;55.82
7075;BME280;3578;51.568;6.932;2022-08-19T10:33:52;59064.91;;;-144.14;57.22
7075;BME280;3578;51.568;6.932;2022-08-19T10:36:27;58942.47;;;-144.14;56.13
7075;BME280;3578;51.568;6.932;2022-08-19T10:38:58;58960.53;;;-144.14;57.63
7075;BME280;3578;51.568;6.932;2022-08-19T10:41:30;58944.47;;;-144.14;57.09
7075;BME280;3578;51.568;6.932;2022-08-19T10:44:00;58982.63;;;-144.14;57.15
7075;BME280;3578;51.568;6.932;2022-08-19T10:46:29;58966.56;;;-144.14;56.02
7075;BME280;3578;51.568;6.932;2022-08-19T10:48:59;59070.94;;;-144.14;55.08
7075;BME280;3578;51.568;6.932;2022-08-19T10:51:30;59225.53;;;-144.14;53.66
7075;BME280;3578;51.568;6.932;2022-08-19T10:54:14;59277.72;;;-144.14;52.94
7075;BME280;3578;51.568;6.932;2022-08-19T10:56:42;59169.31;;;-144.14;52.40
7075;BME280;3578;51.568;6.932;2022-08-19T10:59:19;59203.44;;;-144.14;53.04
7075;BME280;3578;51.568;6.932;2022-08-19T11:01:47;59119.13;;;-144.14;52.53
7075;BME280;3578;51.568;6.932;2022-08-19T11:04:15;58990.66;;;-144.14;53.23
7075;BME280;3578;51.568;6.932;2022-08-19T11:06:45;58976.59;;;-144.14;53.17
7075;BME280;3578;51.568;6.932;2022-08-19T11:09:13;58926.41;;;-144.14;53.29
7075;BME280;3578;51.568;6.932;2022-08-19T11:11:41;58860.16;;;-144.14;53.30
7075;BME280;3578;51.568;6.932;2022-08-19T11:14:12;58872.22;;;-144.14;52.85
7075;BME280;3578;51.568;6.932;2022-08-19T11:16:40;58928.41;;;-144.14;53.33
7075;BME280;3578;51.568;6.932;2022-08-19T11:19:10;58896.28;;;-144.14;52.26
7075;BME280;3578;51.568;6.932;2022-08-19T11:21:42;58962.53;;;-144.14;52.18
7075;BME280;3578;51.568;6.932;2022-08-19T11:24:15;58982.63;;;-144.14;51.15
7075;BME280;3578;51.568;6.932;2022-08-19T11:26:44;58966.56;;;-144.14;50.08
7075;BME280;3578;51.568;6.932;2022-08-19T11:29:12;58926.41;;;-144.14;49.88
7075;BME280;3578;51.568;6.932;2022-08-19T11:31:42;58886.25;;;-144.14;50.69
7075;BME280;3578;51.568;6.932;2022-08-19T11:34:13;58864.19;;;-144.14;50.56
7075;BME280;3578;51.568;6.932;2022-08-19T11:36:42;58820.00;;;-144.14;50.52
7075;BME280;3578;51.568;6.932;2022-08-19T11:39:15;58824.03;;;-144.14;50.39
7075;BME280;3578;51.568;6.932;2022-08-19T11:41:42;58820.00;;;-144.14;49.96
7075;BME280;3578;51.568;6.932;2022-08-19T11:44:10;58936.44;;;-144.14;50.59
7075;BME280;3578;51.568;6.932;2022-08-19T11:46:41;58938.44;;;-144.14;49.20
7075;BME280;3578;51.568;6.932;2022-08-19T11:49:13;58938.44;;;-144.14;48.39
7075;BME280;3578;51.568;6.932;2022-08-19T11:51:41;58998.69;;;-144.14;47.51
7075;BME280;3578;51.568;6.932;2022-08-19T11:54:11;58974.59;;;-144.14;46.53
7075;BME280;3578;51.568;6.932;2022-08-19T11:56:39;59046.84;;;-144.14;45.93
7075;BME280;3578;51.568;6.932;2022-08-19T11:59:07;59141.22;;;-144.14;45.27
7075;BME280;3578;51.568;6.932;2022-08-19T12:01:35;59235.56;;;-144.14;43.59
7075;BME280;3578;51.568;6.932;2022-08-19T12:04:03;59337.97;;;-144.14;44.08
7075;BME280;3578;51.568;6.932;2022-08-19T12:06:32;59492.56;;;-144.14;44.87
7075;BME280;3578;51.568;6.932;2022-08-19T12:09:05;59348.00;;;-144.14;45.03
7075;BME280;3578;51.568;6.932;2022-08-19T12:11:34;59215.50;;;-144.14;45.46
7075;BME280;3578;51.568;6.932;2022-08-19T12:14:02;59111.09;;;-144.14;46.08
7075;BME280;3578;51.568;6.932;2022-08-19T12:16:31;59076.97;;;-144.14;46.26
7075;BME280;3578;51.568;6.932;2022-08-19T12:18:59;58994.66;;;-144.14;46.59
7075;BME280;3578;51.568;6.932;2022-08-19T12:21:31;58942.47;;;-144.14;46.27
7075;BME280;3578;51.568;6.932;2022-08-19T12:24:01;58826.03;;;-144.14;46.23
7075;BME280;3578;51.568;6.932;2022-08-19T12:26:29;58818.00;;;-144.14;45.51
7075;BME280;3578;51.568;6.932;2022-08-19T12:28:59;58874.22;;;-144.14;45.99
7075;BME280;3578;51.568;6.932;2022-08-19T12:31:26;58890.28;;;-144.14;44.57
7075;BME280;3578;51.568;6.932;2022-08-19T12:33:54;59060.91;;;-144.14;44.07
7075;BME280;3578;51.568;6.932;2022-08-19T12:36:21;59161.28;;;-144.14;43.38
7075;BME280;3578;51.568;6.932;2022-08-19T12:38:49;59183.38;;;-144.14;42.60
7075;BME280;3578;51.568;6.932;2022-08-19T12:41:17;59343.97;;;-144.14;41.96
7075;BME280;3578;51.568;6.932;2022-08-19T12:43:46;59418.28;;;-144.14;41.77
7075;BME280;3578;51.568;6.932;2022-08-19T12:46:16;59436.34;;;-144.14;41.25
7075;BME280;3578;51.568;6.932;2022-08-19T12:48:44;59510.63;;;-144.14;41.90
7075;BME280;3578;51.568;6.932;2022-08-19T12:51:14;59570.84;;;-144.14;40.86
7075;BME280;3578;51.568;6.932;2022-08-19T12:53:42;59669.25;;;-144.14;42.13
7075;BME280;3578;51.568;6.932;2022-08-19T12:56:11;59839.91;;;-144.14;41.61
7075;BME280;3578;51.568;6.932;2022-08-19T12:58:41;59809.81;;;-144.14;39.86
7075;BME280;3578;51.568;6.932;2022-08-19T13:01:11;59777.66;;;-144.14;40.26
7075;BME280;3578;51.568;6.932;2022-08-19T13:03:40;59791.72;;;-144.14;39.46
7075;BME280;3578;51.568;6.932;2022-08-19T13:06:08;59785.69;;;-144.14;39.69
7075;BME280;3578;51.568;6.932;2022-08-19T13:08:36;59843.94;;;-144.14;39.24
7075;BME280;3578;51.568;6.932;2022-08-19T13:11:09;59823.84;;;-144.14;39.79